createdAt,value
2023-05-17T00:00:54.099Z,26.45
2023-05-17T00:01:54.099Z,26.43
2023-05-17T00:02:54.109Z,26.42
2023-05-17T00:03:54.060Z,26.40
2023-05-17T00:04:54.159Z,26.40
2023-05-17T00:05:54.118Z,26.36
2023-05-17T00:06:54.071Z,26.39
2023-05-17T00:07:54.040Z,26.35
2023-05-17T00:08:54.050Z,26.32
2023-05-17T00:09:54.041Z,26.32
2023-05-17T00:10:54.027Z,26.29
2023-05-17T00:11:54.011Z,26.31
2023-05-17T00:12:53.994Z,26.31
2023-05-17T00:13:54.045Z,26.25
2023-05-17T00:14:54.401Z,26.26
2023-05-17T00:15:54.018Z,26.24
2023-05-17T00:16:53.968Z,26.28
2023-05-17T00:17:54.050Z,26.26
2023-05-17T00:18:54.092Z,26.29
2023-05-17T00:19:54.007Z,26.28
2023-05-17T00:20:53.982Z,26.28
2023-05-17T00:21:53.945Z,26.29
2023-05-17T00:22:54.057Z,26.28
2023-05-17T00:23:53.959Z,26.28
2023-05-17T00:24:53.916Z,26.29
2023-05-17T00:25:53.927Z,26.28
2023-05-17T00:26:53.942Z,26.29
2023-05-17T00:27:53.892Z,26.29
2023-05-17T00:28:53.915Z,26.32
2023-05-17T00:29:53.902Z,26.31
2023-05-17T00:30:53.870Z,26.32
2023-05-17T00:31:53.885Z,26.31
2023-05-17T00:32:53.950Z,26.34
2023-05-17T00:33:53.846Z,26.32
2023-05-17T00:34:53.873Z,26.35
2023-05-17T00:35:53.865Z,26.35
2023-05-17T00:36:53.872Z,26.35
2023-05-17T00:37:53.827Z,26.35
2023-05-17T00:38:53.852Z,26.35
2023-05-17T00:39:54.423Z,26.35
2023-05-17T00:40:53.792Z,26.35
2023-05-17T00:41:53.796Z,26.36
2023-05-17T00:42:53.814Z,26.36
2023-05-17T00:43:53.798Z,26.36
2023-05-17T00:44:53.791Z,26.40
2023-05-17T00:45:53.752Z,26.38
2023-05-17T00:46:53.758Z,26.36
2023-05-17T00:47:53.835Z,26.38
2023-05-17T00:48:53.733Z,26.38
2023-05-17T00:49:53.746Z,26.38
2023-05-17T00:50:53.782Z,26.40
2023-05-17T00:51:53.727Z,26.38
2023-05-17T00:52:53.740Z,26.38
2023-05-17T00:53:53.796Z,26.39
2023-05-17T00:54:53.857Z,26.40
2023-05-17T00:55:53.829Z,26.38
2023-05-17T00:56:53.812Z,26.38
2023-05-17T00:57:53.825Z,26.40
2023-05-17T00:58:53.852Z,26.40
2023-05-17T00:59:53.872Z,26.39
2023-05-17T01:00:53.893Z,26.39
2023-05-17T01:01:53.862Z,26.42
2023-05-17T01:02:54.002Z,26.40
2023-05-17T01:03:54.017Z,26.39
2023-05-17T01:04:53.927Z,26.42
2023-05-17T01:05:53.932Z,26.43
2023-05-17T01:06:53.941Z,26.42
2023-05-17T01:07:53.962Z,26.40
2023-05-17T01:08:53.955Z,26.43
2023-05-17T01:09:53.955Z,26.42
2023-05-17T01:10:54.085Z,26.39
2023-05-17T01:11:53.978Z,26.40
2023-05-17T01:12:53.990Z,26.42
2023-05-17T01:13:54.038Z,26.42
2023-05-17T01:14:54.101Z,26.42
2023-05-17T01:15:54.060Z,26.39
2023-05-17T01:16:54.083Z,26.39
2023-05-17T01:17:54.214Z,26.38
2023-05-17T01:18:54.219Z,26.34
2023-05-17T01:19:54.258Z,26.35
2023-05-17T01:20:54.162Z,26.28
2023-05-17T01:21:54.202Z,26.28
2023-05-17T01:22:54.250Z,26.25
2023-05-17T01:23:54.288Z,26.25
2023-05-17T01:24:54.332Z,26.24
2023-05-17T01:25:54.381Z,26.21
2023-05-17T01:26:54.508Z,26.19
2023-05-17T01:27:54.465Z,26.19
2023-05-17T01:28:54.497Z,26.19
2023-05-17T01:29:54.549Z,26.19
2023-05-17T01:30:54.603Z,26.21
2023-05-17T01:31:54.604Z,26.19
2023-05-17T01:32:54.675Z,26.24
2023-05-17T01:33:54.735Z,26.21
2023-05-17T01:34:54.703Z,26.22
2023-05-17T01:35:54.739Z,26.22
2023-05-17T01:36:54.782Z,26.24
2023-05-17T01:37:54.809Z,26.25
2023-05-17T01:38:54.802Z,26.28
2023-05-17T01:39:54.862Z,26.25
2023-05-17T01:40:54.871Z,26.26
2023-05-17T01:41:54.905Z,26.26
2023-05-17T01:42:54.980Z,26.26
2023-05-17T01:43:54.944Z,26.29
2023-05-17T01:44:54.943Z,26.31
2023-05-17T01:45:54.946Z,26.31
2023-05-17T01:46:54.984Z,26.34
2023-05-17T01:47:55.072Z,26.31
2023-05-17T01:48:55.115Z,26.32
2023-05-17T01:49:55.064Z,26.34
2023-05-17T01:50:55.034Z,26.32
2023-05-17T01:51:55.073Z,26.32
2023-05-17T01:52:55.130Z,26.34
2023-05-17T01:53:55.106Z,26.31
2023-05-17T01:54:55.118Z,26.32
2023-05-17T01:55:55.158Z,26.35
2023-05-17T01:56:55.184Z,26.32
2023-05-17T01:57:55.192Z,26.34
2023-05-17T01:58:55.288Z,26.35
2023-05-17T01:59:55.222Z,26.35
2023-05-17T02:00:55.241Z,26.35
2023-05-17T02:01:55.255Z,26.35
2023-05-17T02:02:55.311Z,26.34
2023-05-17T02:03:55.355Z,26.34
2023-05-17T02:04:55.348Z,26.34
2023-05-17T02:05:55.322Z,26.34
2023-05-17T02:06:55.337Z,26.34
2023-05-17T02:07:55.382Z,26.32
2023-05-17T02:08:55.406Z,26.35
2023-05-17T02:09:55.449Z,26.32
2023-05-17T02:10:55.427Z,26.32
2023-05-17T02:11:55.459Z,26.34
2023-05-17T02:12:55.493Z,26.34
2023-05-17T02:13:55.501Z,26.34
2023-05-17T02:14:55.612Z,26.34
2023-05-17T02:15:55.587Z,26.34
2023-05-17T02:16:55.577Z,26.35
2023-05-17T02:17:55.655Z,26.36
2023-05-17T02:18:55.649Z,26.35
2023-05-17T02:19:55.604Z,26.35
2023-05-17T02:20:55.652Z,26.34
2023-05-17T02:21:55.654Z,26.35
2023-05-17T02:22:55.703Z,26.36
2023-05-17T02:23:55.736Z,26.35
2023-05-17T02:24:55.709Z,26.35
2023-05-17T02:25:55.750Z,26.38
2023-05-17T02:26:55.756Z,26.35
2023-05-17T02:27:55.770Z,26.39
2023-05-17T02:28:55.787Z,26.35
2023-05-17T02:29:55.848Z,26.38
2023-05-17T02:30:55.947Z,26.36
2023-05-17T02:31:55.854Z,26.36
2023-05-17T02:32:55.979Z,26.35
2023-05-17T02:33:55.963Z,26.36
2023-05-17T02:34:55.945Z,26.39
2023-05-17T02:35:55.967Z,26.38
2023-05-17T02:36:55.964Z,26.35
2023-05-17T02:37:55.990Z,26.35
2023-05-17T02:38:55.977Z,26.35
2023-05-17T02:39:56.024Z,26.36
2023-05-17T02:40:56.081Z,26.35
2023-05-17T02:41:56.082Z,26.35
2023-05-17T02:42:56.084Z,26.32
2023-05-17T02:43:56.146Z,26.34
2023-05-17T02:44:56.154Z,26.35
2023-05-17T02:45:56.196Z,26.32
2023-05-17T02:46:56.345Z,26.29
2023-05-17T02:47:56.255Z,26.31
2023-05-17T02:48:56.276Z,26.31
2023-05-17T02:49:56.322Z,26.29
2023-05-17T02:50:56.324Z,26.29
2023-05-17T02:51:56.367Z,26.29
2023-05-17T02:52:56.390Z,26.29
2023-05-17T02:53:56.427Z,26.28
2023-05-17T02:54:56.468Z,26.28
2023-05-17T02:55:56.507Z,26.31
2023-05-17T02:56:56.568Z,26.28
2023-05-17T02:57:56.597Z,26.29
2023-05-17T02:58:56.610Z,26.28
2023-05-17T02:59:56.646Z,26.26
2023-05-17T03:00:56.670Z,26.28
2023-05-17T03:01:56.688Z,26.28
2023-05-17T03:02:56.949Z,26.28
2023-05-17T03:03:56.906Z,26.29
2023-05-17T03:04:56.781Z,26.31
2023-05-17T03:05:56.782Z,26.31
2023-05-17T03:06:56.821Z,26.29
2023-05-17T03:07:56.870Z,26.31
2023-05-17T03:08:56.898Z,26.31
2023-05-17T03:09:56.893Z,26.29
2023-05-17T03:10:56.913Z,26.34
2023-05-17T03:11:56.948Z,26.31
2023-05-17T03:12:56.985Z,26.31
2023-05-17T03:13:57.055Z,26.32
2023-05-17T03:14:57.106Z,26.31
2023-05-17T03:15:57.092Z,26.32
2023-05-17T03:16:57.078Z,26.31
2023-05-17T03:17:57.193Z,26.29
2023-05-17T03:18:57.356Z,26.31
2023-05-17T03:19:57.225Z,26.32
2023-05-17T03:20:57.223Z,26.31
2023-05-17T03:21:57.252Z,26.29
2023-05-17T03:22:57.307Z,26.31
2023-05-17T03:23:57.349Z,26.28
2023-05-17T03:24:57.402Z,26.28
2023-05-17T03:25:57.470Z,26.31
2023-05-17T03:26:57.501Z,26.28
2023-05-17T03:27:57.572Z,26.28
2023-05-17T03:28:57.606Z,26.25
2023-05-17T03:29:57.656Z,26.26
2023-05-17T03:30:57.783Z,26.26
2023-05-17T03:31:57.742Z,26.25
2023-05-17T03:32:57.821Z,26.26
2023-05-17T03:33:57.868Z,26.28
2023-05-17T03:34:58.004Z,26.28
2023-05-17T03:35:57.894Z,26.25
2023-05-17T03:36:57.959Z,26.25
2023-05-17T03:37:58.021Z,26.25
2023-05-17T03:38:58.032Z,26.22
2023-05-17T03:39:58.096Z,26.22
2023-05-17T03:40:58.133Z,26.25
2023-05-17T03:41:58.192Z,26.24
2023-05-17T03:42:58.230Z,26.22
2023-05-17T03:43:58.289Z,26.21
2023-05-17T03:44:58.337Z,26.21
2023-05-17T03:45:58.382Z,26.22
2023-05-17T03:46:58.460Z,26.19
2023-05-17T03:47:58.523Z,26.21
2023-05-17T03:48:58.571Z,26.22
2023-05-17T03:49:58.573Z,26.19
2023-05-17T03:50:58.759Z,26.19
2023-05-17T03:51:58.681Z,26.18
2023-05-17T03:52:58.706Z,26.18
2023-05-17T03:53:58.734Z,26.22
2023-05-17T03:54:58.823Z,26.21
2023-05-17T03:55:58.835Z,26.21
2023-05-17T03:56:58.913Z,26.19
2023-05-17T03:57:58.986Z,26.19
2023-05-17T03:58:58.993Z,26.21
2023-05-17T03:59:59.055Z,26.19
2023-05-17T04:00:59.074Z,26.18
2023-05-17T04:01:59.071Z,26.21
2023-05-17T04:02:59.158Z,26.21
2023-05-17T04:03:59.209Z,26.22
2023-05-17T04:04:59.264Z,26.21
2023-05-17T04:05:59.300Z,26.18
2023-05-17T04:06:59.323Z,26.21
2023-05-17T04:07:59.407Z,26.21
2023-05-17T04:08:59.510Z,26.18
2023-05-17T04:09:59.472Z,26.19
2023-05-17T04:10:59.541Z,26.18
2023-05-17T04:11:59.568Z,26.19
2023-05-17T04:12:59.637Z,26.19
2023-05-17T04:13:59.669Z,26.21
2023-05-17T04:14:59.699Z,26.22
2023-05-17T04:15:59.737Z,26.22
2023-05-17T04:16:59.813Z,26.21
2023-05-17T04:17:59.936Z,26.21
2023-05-17T04:18:59.982Z,26.22
2023-05-17T04:19:59.936Z,26.22
2023-05-17T04:20:59.988Z,26.24
2023-05-17T04:22:00.054Z,26.22
2023-05-17T04:23:00.140Z,26.24
2023-05-17T04:24:00.110Z,26.22
2023-05-17T04:25:00.167Z,26.22
2023-05-17T04:26:00.214Z,26.24
2023-05-17T04:27:02.030Z,26.24
2023-05-17T04:28:00.213Z,26.25
2023-05-17T04:29:00.200Z,26.22
2023-05-17T04:30:00.197Z,26.25
2023-05-17T04:31:00.218Z,26.24
2023-05-17T04:32:00.190Z,26.25
2023-05-17T04:33:00.338Z,26.24
2023-05-17T04:34:00.238Z,26.25
2023-05-17T04:35:00.210Z,26.25
2023-05-17T04:36:00.154Z,26.24
2023-05-17T04:37:00.176Z,26.26
2023-05-17T04:38:00.195Z,26.25
2023-05-17T04:39:00.219Z,26.29
2023-05-17T04:40:00.154Z,26.26
2023-05-17T04:41:00.118Z,26.28
2023-05-17T04:42:00.138Z,26.26
2023-05-17T04:43:00.133Z,26.28
2023-05-17T04:44:00.100Z,26.32
2023-05-17T04:45:00.092Z,26.31
2023-05-17T04:46:00.088Z,26.31
2023-05-17T04:47:00.081Z,26.31
2023-05-17T04:48:00.164Z,26.31
2023-05-17T04:49:00.192Z,26.34
2023-05-17T04:50:00.063Z,26.31
2023-05-17T04:51:00.049Z,26.34
2023-05-17T04:52:00.057Z,26.34
2023-05-17T04:53:00.056Z,26.32
2023-05-17T04:54:00.078Z,26.32
2023-05-17T04:55:00.085Z,26.34
2023-05-17T04:56:00.010Z,26.34
2023-05-17T04:56:59.986Z,26.34
2023-05-17T04:57:59.993Z,26.35
2023-05-17T04:58:59.978Z,26.39
2023-05-17T05:00:00.001Z,26.35
2023-05-17T05:02:19.123Z,26.32
2023-05-17T05:03:19.102Z,26.36
2023-05-17T05:04:19.199Z,26.34
2023-05-17T05:05:19.072Z,26.36
2023-05-17T05:06:19.095Z,26.39
2023-05-17T05:07:19.109Z,26.36
2023-05-17T05:08:19.063Z,26.36
2023-05-17T05:09:19.049Z,26.39
2023-05-17T05:10:19.138Z,26.40
2023-05-17T05:11:19.012Z,26.42
2023-05-17T05:12:19.028Z,26.40
2023-05-17T05:13:19.066Z,26.40
2023-05-17T05:14:19.034Z,26.42
2023-05-17T05:15:19.044Z,26.45
2023-05-17T05:16:19.010Z,26.42
2023-05-17T05:17:19.190Z,26.45
2023-05-17T05:18:19.129Z,26.43
2023-05-17T05:19:19.165Z,26.45
2023-05-17T05:20:18.981Z,26.46
2023-05-17T05:21:18.993Z,26.45
2023-05-17T05:22:18.982Z,26.46
2023-05-17T05:23:18.962Z,26.46
2023-05-17T05:24:18.980Z,26.47
2023-05-17T05:25:18.966Z,26.45
2023-05-17T05:26:19.033Z,26.46
2023-05-17T05:27:18.954Z,26.47
2023-05-17T05:28:18.923Z,26.49
2023-05-17T05:29:18.929Z,26.45
2023-05-17T05:30:18.948Z,26.46
2023-05-17T05:31:19.292Z,26.49
2023-05-17T05:32:18.926Z,26.52
2023-05-17T05:33:18.970Z,26.50
2023-05-17T05:34:18.927Z,26.46
2023-05-17T05:35:18.948Z,26.46
2023-05-17T05:36:19.295Z,26.45
2023-05-17T05:37:18.857Z,26.47
2023-05-17T05:38:18.867Z,26.43
2023-05-17T05:39:18.867Z,26.43
2023-05-17T05:40:18.849Z,26.42
2023-05-17T05:41:19.306Z,26.42
2023-05-17T05:42:18.924Z,26.40
2023-05-17T05:43:18.873Z,26.42
2023-05-17T05:44:18.834Z,26.43
2023-05-17T05:45:28.920Z,26.43
2023-05-17T05:46:18.853Z,26.43
2023-05-17T05:47:19.921Z,26.45
2023-05-17T05:48:18.902Z,26.45
2023-05-17T05:49:18.818Z,26.43
2023-05-17T05:50:18.823Z,26.40
2023-05-17T05:51:19.758Z,26.39
2023-05-17T05:52:19.970Z,26.38
2023-05-17T05:53:19.935Z,26.35
2023-05-17T05:54:18.957Z,26.29
2023-05-17T05:55:19.063Z,26.26
2023-05-17T05:56:19.066Z,26.21
2023-05-17T05:57:19.169Z,26.16
2023-05-17T05:58:19.229Z,26.12
2023-05-17T05:59:19.798Z,26.06
2023-05-17T06:00:19.288Z,26.02
2023-05-17T06:01:19.316Z,25.98
2023-05-17T06:02:19.400Z,25.92
2023-05-17T06:03:19.436Z,25.91
2023-05-17T06:04:21.022Z,25.87
2023-05-17T06:05:19.471Z,25.83
2023-05-17T06:06:19.745Z,25.81
2023-05-17T06:07:19.434Z,25.74
2023-05-17T06:08:19.438Z,25.74
2023-05-17T06:09:19.478Z,25.71
2023-05-17T06:10:19.456Z,25.68
2023-05-17T06:11:19.417Z,25.64
2023-05-17T06:12:19.405Z,25.60
2023-05-17T06:13:19.442Z,25.58
2023-05-17T06:14:20.532Z,25.55
2023-05-17T06:15:19.375Z,25.53
2023-05-17T06:16:19.420Z,25.53
2023-05-17T06:17:19.400Z,25.50
2023-05-17T06:18:19.438Z,25.48
2023-05-17T06:19:19.493Z,25.44
2023-05-17T06:20:19.348Z,25.43
2023-05-17T06:21:19.376Z,25.41
2023-05-17T06:22:19.363Z,25.37
2023-05-17T06:23:19.340Z,25.34
2023-05-17T06:24:19.359Z,25.33
2023-05-17T06:25:19.331Z,25.34
2023-05-17T06:26:19.325Z,25.33
2023-05-17T06:27:19.324Z,25.29
2023-05-17T06:28:19.324Z,25.30
2023-05-17T06:29:19.276Z,25.29
2023-05-17T06:30:19.498Z,25.27
2023-05-17T06:31:21.101Z,25.26
2023-05-17T06:32:19.263Z,25.23
2023-05-17T06:33:19.325Z,25.20
2023-05-17T06:34:19.270Z,25.19
2023-05-17T06:35:19.252Z,25.14
2023-05-17T06:36:19.248Z,25.12
2023-05-17T06:37:19.348Z,25.16
2023-05-17T06:38:19.272Z,25.22
2023-05-17T06:39:19.280Z,25.23
2023-05-17T06:40:19.268Z,25.29
2023-05-17T06:41:19.296Z,25.34
2023-05-17T06:42:19.372Z,25.37
2023-05-17T06:43:19.301Z,25.40
2023-05-17T06:44:19.299Z,25.48
2023-05-17T06:45:19.306Z,25.45
2023-05-17T06:46:19.462Z,25.47
2023-05-17T06:47:19.322Z,25.47
2023-05-17T06:48:19.432Z,25.47
2023-05-17T06:49:19.325Z,25.45
2023-05-17T06:50:19.304Z,25.44
2023-05-17T06:51:19.380Z,25.45
2023-05-17T06:52:20.349Z,25.47
2023-05-17T06:53:19.351Z,25.48
2023-05-17T06:54:19.347Z,25.44
2023-05-17T06:55:19.346Z,25.47
2023-05-17T06:56:19.351Z,25.48
2023-05-17T06:57:19.356Z,25.47
2023-05-17T06:58:19.365Z,25.45
2023-05-17T06:59:19.394Z,25.43
2023-05-17T07:00:19.378Z,25.43
2023-05-17T07:01:19.383Z,25.40
2023-05-17T07:02:19.789Z,25.41
2023-05-17T07:03:19.473Z,25.37
2023-05-17T07:04:19.682Z,25.33
2023-05-17T07:05:19.627Z,25.34
2023-05-17T07:06:19.525Z,25.33
2023-05-17T07:07:19.537Z,25.27
2023-05-17T07:08:19.594Z,25.27
2023-05-17T07:09:19.585Z,25.27
2023-05-17T07:10:19.622Z,25.24
2023-05-17T07:11:19.633Z,25.22
2023-05-17T07:12:19.700Z,25.22
2023-05-17T07:13:19.720Z,25.24
2023-05-17T07:14:19.718Z,25.23
2023-05-17T07:15:19.778Z,25.23
2023-05-17T07:16:19.786Z,25.24
2023-05-17T07:17:19.799Z,25.26
2023-05-17T07:18:20.043Z,25.26
2023-05-17T07:19:19.883Z,25.27
2023-05-17T07:20:19.860Z,25.29
2023-05-17T07:21:19.910Z,25.30
2023-05-17T07:22:20.369Z,25.31
2023-05-17T07:23:19.956Z,25.33
2023-05-17T07:24:19.992Z,25.31
2023-05-17T07:25:19.997Z,25.33
2023-05-17T07:26:20.007Z,25.31
2023-05-17T07:27:20.035Z,25.30
2023-05-17T07:28:20.088Z,25.29
2023-05-17T07:29:20.093Z,25.27
2023-05-17T07:30:20.150Z,25.26
2023-05-17T07:31:20.166Z,25.30
2023-05-17T07:32:20.182Z,25.33
2023-05-17T07:33:20.162Z,25.34
2023-05-17T07:34:20.263Z,25.38
2023-05-17T07:35:21.664Z,25.47
2023-05-17T07:36:20.277Z,25.50
2023-05-17T07:37:20.361Z,25.55
2023-05-17T07:38:20.321Z,25.60
2023-05-17T07:39:20.398Z,25.67
2023-05-17T07:40:20.407Z,25.67
2023-05-17T07:41:20.488Z,25.71
2023-05-17T07:42:20.883Z,25.75
2023-05-17T07:43:20.560Z,25.81
2023-05-17T07:44:20.652Z,25.83
2023-05-17T07:45:20.680Z,25.92
2023-05-17T07:46:20.760Z,26.01
2023-05-17T07:47:20.861Z,26.05
2023-05-17T07:48:20.973Z,26.06
2023-05-17T07:49:21.029Z,26.11
2023-05-17T07:50:21.099Z,26.15
2023-05-17T07:51:21.068Z,26.18
2023-05-17T07:52:21.344Z,26.21
2023-05-17T07:53:21.223Z,26.22
2023-05-17T07:54:21.243Z,26.26
2023-05-17T07:55:21.282Z,26.28
2023-05-17T07:56:21.352Z,26.36
2023-05-17T07:57:21.373Z,26.39
2023-05-17T07:58:21.440Z,26.43
2023-05-17T07:59:21.433Z,26.46
2023-05-17T08:00:21.418Z,26.49
2023-05-17T08:01:21.446Z,26.52
2023-05-17T08:02:21.544Z,26.55
2023-05-17T08:03:21.488Z,26.59
2023-05-17T08:04:21.566Z,26.62
2023-05-17T08:05:21.535Z,26.63
2023-05-17T08:06:22.494Z,26.66
2023-05-17T08:07:21.590Z,26.69
2023-05-17T08:08:21.593Z,26.70
2023-05-17T08:09:21.580Z,26.75
2023-05-17T08:10:21.659Z,26.76
2023-05-17T08:11:21.615Z,26.79
2023-05-17T08:12:21.648Z,26.80
2023-05-17T08:13:21.697Z,26.82
2023-05-17T08:14:21.638Z,26.87
2023-05-17T08:15:21.666Z,26.89
2023-05-17T08:16:21.666Z,26.91
2023-05-17T08:17:21.662Z,26.91
2023-05-17T08:18:21.729Z,26.93
2023-05-17T08:19:21.720Z,26.94
2023-05-17T08:20:21.609Z,26.97
2023-05-17T08:21:21.619Z,26.96
2023-05-17T08:22:21.591Z,27.00
2023-05-17T08:23:21.610Z,27.00
2023-05-17T08:24:21.578Z,27.01
2023-05-17T08:25:21.607Z,27.06
2023-05-17T08:26:21.659Z,27.06
2023-05-17T08:27:21.893Z,27.10
2023-05-17T08:28:21.667Z,27.10
2023-05-17T08:29:21.745Z,27.10
2023-05-17T08:31:22.744Z,27.14
2023-05-17T08:32:21.875Z,27.14
2023-05-17T08:33:21.834Z,27.15
2023-05-17T08:34:21.717Z,27.13
2023-05-17T08:35:21.698Z,27.14
2023-05-17T08:36:21.683Z,27.13
2023-05-17T08:37:21.983Z,27.11
2023-05-17T08:38:21.717Z,27.08
2023-05-17T08:39:21.755Z,27.08
2023-05-17T08:40:21.723Z,27.06
2023-05-17T08:41:21.635Z,27.00
2023-05-17T08:42:21.673Z,26.94
2023-05-17T08:43:21.872Z,26.91
2023-05-17T08:44:21.681Z,26.87
2023-05-17T08:45:21.635Z,26.82
2023-05-17T08:46:21.740Z,26.75
2023-05-17T08:47:21.646Z,26.73
2023-05-17T08:48:22.025Z,26.69
2023-05-17T08:49:21.790Z,26.63
2023-05-17T08:50:21.769Z,26.63
2023-05-17T08:51:21.800Z,26.57
2023-05-17T08:52:21.820Z,26.57
2023-05-17T08:53:21.908Z,26.56
2023-05-17T08:54:21.951Z,26.53
2023-05-17T08:55:21.964Z,26.49
2023-05-17T08:56:22.026Z,26.45
2023-05-17T08:57:22.155Z,26.43
2023-05-17T08:58:22.197Z,26.43
2023-05-17T08:59:22.210Z,26.43
2023-05-17T09:00:22.351Z,26.40
2023-05-17T09:01:24.379Z,26.40
2023-05-17T09:02:22.412Z,26.38
2023-05-17T09:03:22.401Z,26.35
2023-05-17T09:04:22.332Z,26.32
2023-05-17T09:05:22.340Z,26.28
2023-05-17T09:06:22.414Z,26.24
2023-05-17T09:07:22.301Z,26.22
2023-05-17T09:08:22.304Z,26.22
2023-05-17T09:09:22.282Z,26.24
2023-05-17T09:10:22.509Z,26.25
2023-05-17T09:11:22.261Z,26.29
2023-05-17T09:12:24.784Z,26.29
2023-05-17T09:13:22.284Z,26.32
2023-05-17T09:14:22.251Z,26.34
2023-05-17T09:15:22.256Z,26.38
2023-05-17T09:16:22.242Z,26.39
2023-05-17T09:17:22.339Z,26.40
2023-05-17T09:18:22.292Z,26.43
2023-05-17T09:19:22.347Z,26.43
2023-05-17T09:20:22.301Z,26.46
2023-05-17T09:21:22.187Z,26.49
2023-05-17T09:22:22.207Z,26.50
2023-05-17T09:23:22.224Z,26.53
2023-05-17T09:24:23.403Z,26.55
2023-05-17T09:25:22.157Z,26.57
2023-05-17T09:26:22.155Z,26.56
2023-05-17T09:27:22.159Z,26.59
2023-05-17T09:28:22.133Z,26.60
2023-05-17T09:29:22.155Z,26.59
2023-05-17T09:30:25.086Z,26.55
2023-05-17T09:31:22.171Z,26.56
2023-05-17T09:32:22.156Z,26.59
2023-05-17T09:33:22.171Z,26.59
2023-05-17T09:34:22.126Z,26.56
2023-05-17T09:35:22.102Z,26.59
2023-05-17T09:36:22.093Z,26.55
2023-05-17T09:37:22.127Z,26.59
2023-05-17T09:38:24.151Z,26.56
2023-05-17T09:39:22.085Z,26.56
2023-05-17T09:40:22.062Z,26.53
2023-05-17T09:41:22.072Z,26.55
2023-05-17T09:42:22.062Z,26.57
2023-05-17T09:43:22.044Z,26.55
2023-05-17T09:44:22.856Z,26.53
2023-05-17T09:45:22.058Z,26.53
2023-05-17T09:46:22.063Z,26.50
2023-05-17T09:47:22.105Z,26.53
2023-05-17T09:48:22.166Z,26.52
2023-05-17T09:49:22.022Z,26.57
2023-05-17T09:50:24.606Z,26.62
2023-05-17T09:51:21.992Z,26.64
2023-05-17T09:52:21.970Z,26.69
2023-05-17T09:53:22.006Z,26.73
2023-05-17T09:54:22.021Z,26.80
2023-05-17T09:55:22.171Z,26.82
2023-05-17T09:56:21.952Z,26.80
2023-05-17T09:57:21.971Z,26.85
2023-05-17T09:58:22.520Z,26.83
2023-05-17T09:59:21.942Z,26.80
2023-05-17T10:00:21.963Z,26.82
2023-05-17T10:01:21.913Z,26.82
2023-05-17T10:02:21.961Z,26.85
2023-05-17T10:03:21.932Z,26.85
2023-05-17T10:04:21.907Z,26.86
2023-05-17T10:05:21.981Z,26.89
2023-05-17T10:06:33.295Z,26.90
2023-05-17T10:07:22.926Z,26.90
2023-05-17T10:08:21.898Z,26.94
2023-05-17T10:09:21.940Z,26.97
2023-05-17T10:10:21.865Z,26.99
2023-05-17T10:11:21.852Z,27.00
2023-05-17T10:12:23.629Z,27.01
2023-05-17T10:13:21.898Z,27.04
2023-05-17T10:14:21.887Z,27.07
2023-05-17T10:15:21.885Z,27.07
2023-05-17T10:16:21.942Z,27.10
2023-05-17T10:17:21.932Z,27.11
2023-05-17T10:18:22.471Z,27.10
2023-05-17T10:19:22.146Z,27.11
2023-05-17T10:20:22.062Z,27.14
2023-05-17T10:21:22.096Z,27.13
2023-05-17T10:22:23.898Z,27.14
2023-05-17T10:23:22.032Z,27.14
2023-05-17T10:24:22.085Z,27.17
2023-05-17T10:25:22.107Z,27.20
2023-05-17T10:26:22.126Z,27.18
2023-05-17T10:27:22.153Z,27.15
2023-05-17T10:28:22.417Z,27.14
2023-05-17T10:29:22.217Z,27.14
2023-05-17T10:30:22.265Z,27.14
2023-05-17T10:31:22.277Z,27.10
2023-05-17T10:32:22.296Z,27.08
2023-05-17T10:33:22.398Z,27.10
2023-05-17T10:34:22.477Z,27.07
2023-05-17T10:35:22.257Z,27.06
2023-05-17T10:36:22.261Z,27.01
2023-05-17T10:37:22.281Z,27.00
2023-05-17T10:38:28.915Z,26.96
2023-05-17T10:39:23.429Z,26.93
2023-05-17T10:40:22.432Z,26.93
2023-05-17T10:41:22.441Z,26.87
2023-05-17T10:42:22.455Z,26.85
2023-05-17T10:43:22.937Z,26.80
2023-05-17T10:44:22.476Z,26.75
2023-05-17T10:45:22.545Z,26.70
2023-05-17T10:46:22.519Z,26.66
2023-05-17T10:47:22.784Z,26.62
2023-05-17T10:48:23.095Z,26.59
2023-05-17T10:49:24.750Z,26.55
2023-05-17T10:50:22.693Z,26.47
2023-05-17T10:51:22.747Z,26.45
2023-05-17T10:52:22.780Z,26.39
2023-05-17T10:53:22.843Z,26.36
2023-05-17T10:54:23.565Z,26.31
2023-05-17T10:55:22.965Z,26.31
2023-05-17T10:56:23.078Z,26.24
2023-05-17T10:57:23.083Z,26.19
2023-05-17T10:58:23.172Z,26.18
2023-05-17T10:59:23.198Z,26.11
2023-05-17T11:00:23.220Z,26.08
2023-05-17T11:01:23.288Z,26.06
2023-05-17T11:02:23.302Z,26.04
2023-05-17T11:03:23.360Z,26.01
2023-05-17T11:04:23.431Z,26.01
2023-05-17T11:05:23.497Z,25.95
2023-05-17T11:06:25.086Z,25.95
2023-05-17T11:07:23.675Z,25.91
2023-05-17T11:08:24.364Z,25.91
2023-05-17T11:09:23.758Z,25.88
2023-05-17T11:10:23.828Z,25.85
2023-05-17T11:11:23.893Z,25.85
2023-05-17T11:12:23.878Z,25.84
2023-05-17T11:13:23.992Z,25.81
2023-05-17T11:14:24.008Z,25.80
2023-05-17T11:15:24.084Z,25.77
2023-05-17T11:16:24.131Z,25.75
2023-05-17T11:17:24.279Z,25.74
2023-05-17T11:18:31.208Z,25.77
2023-05-17T11:19:25.203Z,25.73
2023-05-17T11:20:24.261Z,25.73
2023-05-17T11:21:24.203Z,25.70
2023-05-17T11:22:24.969Z,25.68
2023-05-17T11:23:24.941Z,25.68
2023-05-17T11:24:24.197Z,25.65
2023-05-17T11:25:24.118Z,25.63
2023-05-17T11:26:24.146Z,25.68
2023-05-17T11:27:24.185Z,25.68
2023-05-17T11:28:24.519Z,25.70
2023-05-17T11:29:24.275Z,25.70
2023-05-17T11:30:24.328Z,25.73
2023-05-17T11:31:24.371Z,25.73
2023-05-17T11:32:24.456Z,25.78
2023-05-17T11:33:33.637Z,25.85
2023-05-17T11:34:25.981Z,25.85
2023-05-17T11:35:24.496Z,25.89
2023-05-17T11:36:24.563Z,25.88
2023-05-17T11:37:24.598Z,25.89
2023-05-17T11:38:24.639Z,25.92
2023-05-17T11:39:24.713Z,25.95
2023-05-17T11:40:24.767Z,25.98
2023-05-17T11:41:27.318Z,25.99
2023-05-17T11:42:25.069Z,26.02
2023-05-17T11:43:25.109Z,26.04
2023-05-17T11:44:25.196Z,26.04
2023-05-17T11:45:25.253Z,26.06
2023-05-17T11:46:25.284Z,26.06
2023-05-17T11:47:25.406Z,26.08
2023-05-17T11:48:25.560Z,26.11
2023-05-17T11:49:34.952Z,26.14
2023-05-17T11:50:26.464Z,26.11
2023-05-17T11:51:25.399Z,26.12
2023-05-17T11:52:26.711Z,26.15
2023-05-17T11:53:25.396Z,26.15
2023-05-17T11:54:25.422Z,26.16
2023-05-17T11:55:25.406Z,26.15
2023-05-17T11:56:35.717Z,26.19
2023-05-17T11:57:26.362Z,26.18
2023-05-17T11:58:25.371Z,26.18
2023-05-17T11:59:25.348Z,26.21
2023-05-17T12:00:25.373Z,26.18
2023-05-17T12:01:25.357Z,26.18
2023-05-17T12:02:25.334Z,26.16
2023-05-17T12:03:25.367Z,26.22
2023-05-17T12:04:25.373Z,26.21
2023-05-17T12:05:25.317Z,26.18
2023-05-17T12:06:25.353Z,26.19
2023-05-17T12:07:25.324Z,26.18
2023-05-17T12:08:25.302Z,26.19
2023-05-17T12:09:25.339Z,26.19
2023-05-17T12:10:25.409Z,26.21
2023-05-17T12:11:25.442Z,26.22
2023-05-17T12:12:25.524Z,26.19
2023-05-17T12:13:25.545Z,26.21
2023-05-17T12:14:25.589Z,26.19
2023-05-17T12:15:25.640Z,26.21
2023-05-17T12:16:25.709Z,26.21
2023-05-17T12:17:25.784Z,26.22
2023-05-17T12:18:25.897Z,26.25
2023-05-17T12:19:25.962Z,26.24
2023-05-17T12:20:25.910Z,26.25
2023-05-17T12:21:25.888Z,26.24
2023-05-17T12:22:26.044Z,26.25
2023-05-17T12:23:25.970Z,26.25
2023-05-17T12:24:26.493Z,26.26
2023-05-17T12:25:26.049Z,26.26
2023-05-17T12:26:26.101Z,26.26
2023-05-17T12:27:26.128Z,26.29
2023-05-17T12:28:26.170Z,26.26
2023-05-17T12:29:26.198Z,26.31
2023-05-17T12:30:26.281Z,26.31
2023-05-17T12:31:26.284Z,26.29
2023-05-17T12:32:26.552Z,26.29
2023-05-17T12:33:26.499Z,26.29
2023-05-17T12:34:26.416Z,26.31
2023-05-17T12:35:26.498Z,26.31
2023-05-17T12:36:26.501Z,26.32
2023-05-17T12:37:26.541Z,26.31
2023-05-17T12:38:26.600Z,26.32
2023-05-17T12:39:26.616Z,26.31
2023-05-17T12:40:26.787Z,26.34
2023-05-17T12:41:26.715Z,26.32
2023-05-17T12:42:26.746Z,26.32
2023-05-17T12:43:26.790Z,26.32
2023-05-17T12:44:26.824Z,26.31
2023-05-17T12:45:26.892Z,26.31
2023-05-17T12:46:26.901Z,26.35
2023-05-17T12:47:27.009Z,26.35
2023-05-17T12:48:27.093Z,26.32
2023-05-17T12:49:27.026Z,26.34
2023-05-17T12:50:27.241Z,26.34
2023-05-17T12:51:27.110Z,26.34
2023-05-17T12:52:27.166Z,26.36
2023-05-17T12:53:27.207Z,26.34
2023-05-17T12:54:27.246Z,26.32
2023-05-17T12:55:27.256Z,26.34